createdAt,value
2022-08-05T00:00:16.131Z,101515.38
2022-08-05T00:02:50.504Z,101502.56
2022-08-05T00:06:02.682Z,101494.22
2022-08-05T00:08:30.874Z,101503.38
2022-08-05T00:10:56.481Z,101487.56
2022-08-05T00:13:38.376Z,101501.19
2022-08-05T00:16:09.552Z,101492.63
2022-08-05T00:18:44.760Z,101502.47
2022-08-05T00:21:12.729Z,101496.94
2022-08-05T00:23:46.493Z,101495.63
2022-08-05T00:26:20.713Z,101513.97
2022-08-05T00:28:49.318Z,101505.66
2022-08-05T00:31:16.442Z,101512.94
2022-08-05T00:34:53.413Z,101516.75
2022-08-05T00:37:13.204Z,101498.09
2022-08-05T00:39:57.265Z,101507.09
2022-08-05T00:42:35.425Z,101511.97
2022-08-05T00:45:08.553Z,101519.91
2022-08-05T00:47:57.002Z,101471.63
2022-08-05T00:50:25.863Z,101518.97
2022-08-05T00:52:53.519Z,101516.84
2022-08-05T00:55:22.614Z,101514.72
2022-08-05T00:57:58.200Z,101514.69
2022-08-05T01:00:32.983Z,101512.50
2022-08-05T01:03:02.689Z,101523.59
2022-08-05T01:05:35.059Z,101529.78
2022-08-05T01:08:42.110Z,101533.63
2022-08-05T01:10:52.964Z,101534.28
2022-08-05T01:13:58.846Z,101541.94
2022-08-05T01:16:49.335Z,101549.19
2022-08-05T01:20:01.963Z,101546.22
2022-08-05T01:22:57.248Z,101539.81
2022-08-05T01:25:40.681Z,101554.34
2022-08-05T01:28:23.303Z,101552.63
2022-08-05T01:31:03.494Z,101557.50
2022-08-05T01:33:38.238Z,101554.72
2022-08-05T01:36:16.168Z,101575.19
2022-08-05T01:38:46.097Z,101524.59
2022-08-05T01:41:21.606Z,101568.31
2022-08-05T01:43:51.130Z,101565.56
2022-08-05T01:46:41.346Z,101556.34
2022-08-05T01:49:23.858Z,101576.63
2022-08-05T01:51:58.292Z,101574.94
2022-08-05T01:54:49.428Z,101566.63
2022-08-05T01:58:30.011Z,101551.63
2022-08-05T02:00:13.904Z,101553.75
2022-08-05T02:02:54.434Z,101537.91
2022-08-05T02:05:28.652Z,101543.66
2022-08-05T02:08:00.961Z,101533.09
2022-08-05T02:10:35.215Z,101533.69
2022-08-05T02:13:16.378Z,101548.88
2022-08-05T02:16:05.775Z,101538.63
2022-08-05T02:18:41.807Z,101532.00
2022-08-05T02:21:16.472Z,101521.13
2022-08-05T02:23:46.262Z,101516.75
2022-08-05T02:26:17.171Z,101520.38
2022-08-05T02:28:48.240Z,101510.94
2022-08-05T02:31:23.650Z,101516.41
2022-08-05T02:34:03.803Z,101480.06
2022-08-05T02:36:35.573Z,101523.38
2022-08-05T02:39:04.994Z,101538.28
2022-08-05T02:41:57.556Z,101550.59
2022-08-05T02:44:24.968Z,101561.47
2022-08-05T02:46:58.868Z,101564.91
2022-08-05T02:49:43.466Z,101548.03
2022-08-05T02:52:29.474Z,101550.88
2022-08-05T02:55:01.921Z,101557.94
2022-08-05T02:58:20.503Z,101557.94
2022-08-05T03:00:20.194Z,101560.91
2022-08-05T03:02:51.629Z,101537.88
2022-08-05T03:05:21.948Z,101530.00
2022-08-05T03:08:08.760Z,101533.34
2022-08-05T03:10:36.243Z,101532.00
2022-08-05T03:13:17.100Z,101498.59
2022-08-05T03:15:48.060Z,101528.38
2022-08-05T03:18:18.469Z,101536.88
2022-08-05T03:20:51.319Z,101537.91
2022-08-05T03:23:18.321Z,101537.03
2022-08-05T03:26:04.895Z,101544.50
2022-08-05T03:28:41.770Z,101540.56
2022-08-05T03:31:09.107Z,101555.56
2022-08-05T03:33:50.986Z,101560.41
2022-08-05T03:36:18.339Z,101564.25
2022-08-05T03:38:57.986Z,101562.31
2022-08-05T03:41:24.554Z,101575.97
2022-08-05T03:44:09.179Z,101579.06
2022-08-05T03:46:38.116Z,101570.94
2022-08-05T03:49:04.649Z,101558.81
2022-08-05T03:52:49.414Z,101532.00
2022-08-05T03:55:49.852Z,101539.81
2022-08-05T03:57:42.381Z,101552.78
2022-08-05T04:00:15.867Z,101544.88
2022-08-05T04:02:57.697Z,101549.72
2022-08-05T04:05:33.935Z,101538.00
2022-08-05T04:08:29.652Z,101516.53
2022-08-05T04:10:54.955Z,101533.81
2022-08-05T04:13:22.011Z,101529.06
2022-08-05T04:16:03.263Z,101519.81
2022-08-05T04:18:32.302Z,101538.97
2022-08-05T04:21:02.136Z,101534.91
2022-08-05T04:24:05.694Z,101536.69
2022-08-05T04:26:21.429Z,101542.88
2022-08-05T04:28:51.046Z,101546.44
2022-08-05T04:31:18.392Z,101556.06
2022-08-05T04:34:18.751Z,101553.47
2022-08-05T04:36:45.152Z,101554.75
2022-08-05T04:39:12.956Z,101559.56
2022-08-05T04:41:39.626Z,101569.88
2022-08-05T04:44:09.518Z,101566.47
2022-08-05T04:46:37.021Z,101572.38
2022-08-05T04:49:14.617Z,101566.84
2022-08-05T04:51:42.452Z,101569.50
2022-08-05T04:54:10.366Z,101573.59
2022-08-05T04:56:38.673Z,101567.22
2022-08-05T04:59:24.308Z,101579.13
2022-08-05T05:02:07.373Z,101580.00
2022-08-05T05:04:35.420Z,101572.56
2022-08-05T05:07:05.198Z,101568.25
2022-08-05T05:09:39.975Z,101568.25
2022-08-05T05:12:12.046Z,101562.06
2022-08-05T05:14:54.891Z,101566.38
2022-08-05T05:17:55.670Z,101565.81
2022-08-05T05:20:14.883Z,101564.63
2022-08-05T05:22:47.934Z,101567.63
2022-08-05T05:25:17.549Z,101569.59
2022-08-05T05:27:48.597Z,101573.44
2022-08-05T05:30:31.443Z,101546.06
2022-08-05T05:33:09.121Z,101578.47
2022-08-05T05:35:45.790Z,101573.13
2022-08-05T05:38:14.000Z,101582.50
2022-08-05T05:40:49.855Z,101588.78
2022-08-05T05:43:57.597Z,101580.94
2022-08-05T05:46:17.579Z,101586.94
2022-08-05T05:48:48.702Z,101570.72
2022-08-05T05:51:27.701Z,101600.13
2022-08-05T05:53:59.013Z,101597.53
2022-08-05T05:56:34.759Z,101603.34
2022-08-05T05:59:07.549Z,101594.78
2022-08-05T06:01:37.396Z,101605.56
2022-08-05T06:04:14.716Z,101608.22
2022-08-05T06:06:47.522Z,101609.59
2022-08-05T06:09:16.624Z,101615.97
2022-08-05T06:11:59.516Z,101616.16
2022-08-05T06:14:29.419Z,101619.59
2022-08-05T06:16:56.999Z,101618.19
2022-08-05T06:19:33.032Z,101613.50
2022-08-05T06:22:02.531Z,101626.75
2022-08-05T06:24:32.712Z,101628.50
2022-08-05T06:27:01.868Z,101616.25
2022-08-05T06:29:48.901Z,101626.66
2022-08-05T06:32:25.146Z,101622.25
2022-08-05T06:34:56.311Z,101616.19
2022-08-05T06:37:56.182Z,101624.19
2022-08-05T06:40:14.121Z,101614.44
2022-08-05T06:42:48.161Z,101619.41
2022-08-05T06:45:21.153Z,101621.84
2022-08-05T06:48:36.386Z,101622.19
2022-08-05T06:50:55.285Z,101622.56
2022-08-05T06:53:22.459Z,101636.31
2022-08-05T06:55:51.833Z,101646.94
2022-08-05T06:58:30.048Z,101642.94
2022-08-05T07:01:03.717Z,101645.41
2022-08-05T07:03:32.704Z,101645.69
2022-08-05T07:06:05.625Z,101655.13
2022-08-05T07:08:48.050Z,101646.91
2022-08-05T07:11:22.129Z,101654.22
2022-08-05T07:14:15.649Z,101669.25
2022-08-05T07:17:58.903Z,101672.25
2022-08-05T07:22:32.965Z,101679.19
2022-08-05T07:25:22.561Z,101686.97
2022-08-05T07:27:58.151Z,101679.81
2022-08-05T07:30:32.195Z,101692.00
2022-08-05T07:33:05.403Z,101695.44
2022-08-05T07:36:02.654Z,101700.41
2022-08-05T07:38:31.977Z,101699.13
2022-08-05T07:42:07.480Z,101706.00
2022-08-05T07:43:55.166Z,101695.88
2022-08-05T07:46:26.068Z,101706.91
2022-08-05T07:49:04.225Z,101650.84
2022-08-05T07:51:48.744Z,101687.63
2022-08-05T07:54:31.147Z,101704.34
2022-08-05T07:57:17.765Z,101701.84
2022-08-05T07:59:49.189Z,101693.63
2022-08-05T08:02:18.568Z,101708.28
2022-08-05T08:04:47.446Z,101700.75
2022-08-05T08:07:15.066Z,101715.13
2022-08-05T08:09:42.314Z,101722.81
2022-08-05T08:12:30.578Z,101720.63
2022-08-05T08:15:02.686Z,101724.44
2022-08-05T08:17:35.439Z,101730.91
2022-08-05T08:20:22.150Z,101729.19
2022-08-05T08:22:55.652Z,101729.25
2022-08-05T08:25:27.101Z,101720.69
2022-08-05T08:28:18.810Z,101731.69
2022-08-05T08:30:59.761Z,101736.47
2022-08-05T08:33:27.592Z,101741.03
2022-08-05T08:36:18.421Z,101736.72
2022-08-05T08:38:53.074Z,101735.81
2022-08-05T08:41:22.240Z,101748.25
2022-08-05T08:45:23.212Z,101740.38
2022-08-05T08:46:45.162Z,101721.72
2022-08-05T08:50:22.566Z,101743.38
2022-08-05T08:52:17.852Z,101751.09
2022-08-05T08:54:47.987Z,101773.78
2022-08-05T08:57:14.924Z,101777.56
2022-08-05T08:59:47.214Z,101788.16
2022-08-05T09:02:19.463Z,101787.59
2022-08-05T09:05:15.910Z,101789.22
2022-08-05T09:07:55.815Z,101770.38
2022-08-05T09:10:27.207Z,101778.78
2022-08-05T09:12:55.514Z,101778.31
2022-08-05T09:15:22.845Z,101778.94
2022-08-05T09:17:52.886Z,101779.81
2022-08-05T09:20:36.778Z,101782.19
2022-08-05T09:23:19.028Z,101788.81
2022-08-05T09:26:00.020Z,101789.66
2022-08-05T09:28:33.445Z,101800.78
2022-08-05T09:31:23.511Z,101792.63
2022-08-05T09:34:01.100Z,101797.69
2022-08-05T09:36:56.085Z,101796.28
2022-08-05T09:39:42.017Z,101790.28
2022-08-05T09:42:23.299Z,101803.50
2022-08-05T09:44:56.529Z,101808.66
2022-08-05T09:47:48.360Z,101791.22
2022-08-05T09:50:18.241Z,101817.13
2022-08-05T09:53:03.303Z,101812.66
2022-08-05T09:55:58.277Z,101781.13
2022-08-05T09:58:23.306Z,101818.91
2022-08-05T10:01:13.521Z,101810.28
2022-08-05T10:04:00.323Z,101819.09
2022-08-05T10:06:28.029Z,101821.44
2022-08-05T10:08:55.632Z,101823.53
2022-08-05T10:11:22.939Z,101817.19
2022-08-05T10:13:54.705Z,101837.88
2022-08-05T10:16:29.114Z,101822.50
2022-08-05T10:18:57.103Z,101825.63
2022-08-05T10:21:24.228Z,101832.84
2022-08-05T10:23:59.297Z,101827.31
2022-08-05T10:26:32.441Z,101831.97
2022-08-05T10:28:59.837Z,101833.50
2022-08-05T10:32:55.447Z,101836.31
2022-08-05T10:34:16.974Z,101829.94
2022-08-05T10:36:44.521Z,101821.09
2022-08-05T10:39:24.491Z,101846.31
2022-08-05T10:42:18.586Z,101838.44
2022-08-05T10:44:50.896Z,101829.34
2022-08-05T10:47:27.015Z,101855.00
2022-08-05T10:50:31.629Z,101854.69
2022-08-05T10:53:01.105Z,101859.19
2022-08-05T10:55:30.563Z,101849.38
2022-08-05T10:58:14.966Z,101850.25
2022-08-05T11:00:47.463Z,101867.16
2022-08-05T11:03:24.776Z,101864.97
2022-08-05T11:06:15.474Z,101874.50
2022-08-05T11:09:17.381Z,101874.72
2022-08-05T11:11:53.268Z,101869.75
2022-08-05T11:14:57.844Z,101891.31
2022-08-05T11:18:07.312Z,101880.50
2022-08-05T11:20:46.185Z,101886.53
2022-08-05T11:24:04.857Z,101891.84
2022-08-05T11:26:43.337Z,101891.22
2022-08-05T11:29:40.258Z,101880.19
2022-08-05T11:32:27.615Z,101896.81
2022-08-05T11:34:57.917Z,101889.75
2022-08-05T11:38:36.952Z,101911.28
2022-08-05T11:41:34.367Z,101913.63
2022-08-05T11:44:40.453Z,101912.91
2022-08-05T11:47:11.132Z,101929.00
2022-08-05T11:49:51.181Z,101928.03
2022-08-05T11:52:29.737Z,101913.31
2022-08-05T11:55:07.291Z,101929.91
2022-08-05T11:58:08.457Z,101935.97
2022-08-05T12:00:31.339Z,101936.63
2022-08-05T12:02:58.049Z,101953.97
2022-08-05T12:05:32.223Z,101953.16
2022-08-05T12:08:10.994Z,101954.88
2022-08-05T12:10:45.801Z,101959.56
2022-08-05T12:13:18.621Z,101968.78
2022-08-05T12:15:55.903Z,101966.25
2022-08-05T12:18:33.868Z,101966.63
2022-08-05T12:21:12.482Z,101979.78
2022-08-05T12:23:43.124Z,101993.78
2022-08-05T12:26:10.169Z,101983.50
2022-08-05T12:28:38.095Z,101969.31
2022-08-05T12:31:05.540Z,101991.56
2022-08-05T12:33:36.252Z,101984.19
2022-08-05T12:36:08.155Z,101993.44
2022-08-05T12:38:41.619Z,101999.66
2022-08-05T12:41:16.333Z,101998.66
2022-08-05T12:43:57.062Z,101994.03
2022-08-05T12:46:29.336Z,102005.75
2022-08-05T12:49:13.750Z,102005.97
2022-08-05T12:52:12.389Z,102001.41
2022-08-05T12:54:44.433Z,102010.78
2022-08-05T12:57:13.172Z,102003.28
2022-08-05T13:01:58.298Z,102000.66
2022-08-05T13:02:40.186Z,102014.63
2022-08-05T13:05:08.357Z,102026.50
2022-08-05T13:07:59.267Z,102019.00
2022-08-05T13:10:27.079Z,102026.72
2022-08-05T13:12:58.592Z,102014.31
2022-08-05T13:15:41.066Z,102009.81
2022-08-05T13:18:19.607Z,102011.53
2022-08-05T13:20:49.798Z,102008.31
2022-08-05T13:23:18.016Z,102024.41
2022-08-05T13:25:52.470Z,102028.91
2022-08-05T13:28:26.039Z,102027.38
2022-08-05T13:30:57.361Z,102017.53
2022-08-05T13:34:21.355Z,102026.34
2022-08-05T13:36:14.474Z,102026.75
2022-08-05T13:38:42.512Z,102001.94
2022-08-05T13:41:12.640Z,102031.50
2022-08-05T13:43:45.341Z,102037.31
2022-08-05T13:46:37.656Z,102046.72
2022-08-05T13:49:11.773Z,102053.78
2022-08-05T13:51:41.401Z,102058.91
2022-08-05T13:54:11.805Z,102029.31
2022-08-05T13:56:39.809Z,102060.69
2022-08-05T13:59:19.501Z,102071.66
2022-08-05T14:01:57.489Z,102075.28
2022-08-05T14:04:51.454Z,102068.44
2022-08-05T14:07:56.510Z,102075.25
2022-08-05T14:10:08.690Z,102044.16
2022-08-05T14:12:35.863Z,102081.06
2022-08-05T14:15:06.022Z,102074.63
2022-08-05T14:17:50.009Z,102073.34
2022-08-05T14:20:17.565Z,102084.97
2022-08-05T14:22:50.107Z,102093.75
2022-08-05T14:25:21.586Z,102097.63
2022-08-05T14:27:49.764Z,102099.78
2022-08-05T14:30:20.284Z,102105.53
2022-08-05T14:32:48.940Z,102111.91
2022-08-05T14:35:16.313Z,102105.41
2022-08-05T14:37:52.167Z,102118.69
2022-08-05T14:40:21.738Z,102099.78
2022-08-05T14:42:51.342Z,102103.03
2022-08-05T14:45:18.758Z,102110.09
2022-08-05T14:48:03.644Z,102103.94
2022-08-05T14:50:33.185Z,102098.38
2022-08-05T14:53:06.848Z,102092.00
2022-08-05T14:55:39.407Z,102093.44
2022-08-05T14:58:11.334Z,102098.81
2022-08-05T15:00:57.948Z,102074.72
2022-08-05T15:03:33.151Z,102099.19
2022-08-05T15:06:07.371Z,102102.81
2022-08-05T15:08:59.260Z,102094.66
2022-08-05T15:11:50.968Z,102099.59
2022-08-05T15:14:34.320Z,102113.34
2022-08-05T15:17:04.792Z,102117.22
2022-08-05T15:19:32.593Z,102086.44
2022-08-05T15:22:01.305Z,102110.31
2022-08-05T15:24:29.041Z,102115.09
2022-08-05T15:26:58.230Z,102115.13
2022-08-05T15:29:30.161Z,102116.66
2022-08-05T15:32:02.279Z,102111.91
2022-08-05T15:34:32.470Z,102116.75
2022-08-05T15:37:06.454Z,102110.59
2022-08-05T15:40:59.098Z,102118.38
2022-08-05T15:42:53.705Z,102132.88
2022-08-05T15:45:18.669Z,102133.03
2022-08-05T15:47:49.780Z,102141.41
2022-08-05T15:50:21.046Z,102134.47
2022-08-05T15:52:54.970Z,102130.75
2022-08-05T15:55:24.457Z,102136.63
2022-08-05T15:57:52.203Z,102125.22
2022-08-05T16:00:26.220Z,102135.03
2022-08-05T16:02:59.754Z,102138.59
2022-08-05T16:05:28.394Z,102139.59
2022-08-05T16:07:55.368Z,102140.22
2022-08-05T16:10:25.477Z,102138.84
2022-08-05T16:12:56.065Z,102128.72
2022-08-05T16:15:23.269Z,102155.50
2022-08-05T16:17:57.733Z,102164.75
2022-08-05T16:20:25.449Z,102158.53
2022-08-05T16:22:52.154Z,102163.44
2022-08-05T16:25:18.820Z,102175.09
2022-08-05T16:27:59.607Z,102169.47
2022-08-05T16:30:32.285Z,102167.31
2022-08-05T16:33:00.552Z,102177.31
2022-08-05T16:35:33.709Z,102177.16
2022-08-05T16:38:23.774Z,102184.47
2022-08-05T16:40:59.514Z,102173.41
2022-08-05T16:43:33.062Z,102182.72
2022-08-05T16:46:06.811Z,102190.09
2022-08-05T16:48:38.580Z,102183.69
2022-08-05T16:51:09.956Z,102198.13
2022-08-05T16:54:05.211Z,102191.66
2022-08-05T16:56:26.105Z,102199.09
2022-08-05T16:58:52.995Z,102198.09
2022-08-05T17:01:20.212Z,102208.09
2022-08-05T17:03:47.462Z,102213.28
2022-08-05T17:06:16.650Z,102216.47
2022-08-05T17:08:52.817Z,102206.75
2022-08-05T17:11:26.090Z,102199.88
2022-08-05T17:14:05.751Z,102219.00
2022-08-05T17:16:37.823Z,102219.81
2022-08-05T17:19:07.846Z,102222.06
2022-08-05T17:21:39.803Z,102210.56
2022-08-05T17:24:19.368Z,102224.59
2022-08-05T17:26:58.505Z,102226.53
2022-08-05T17:29:33.813Z,102234.78
2022-08-05T17:32:11.664Z,102240.03
2022-08-05T17:34:44.776Z,102248.09
2022-08-05T17:37:40.864Z,102249.09
2022-08-05T17:40:02.399Z,102246.75
2022-08-05T17:42:32.064Z,102257.97
2022-08-05T17:45:00.266Z,102261.09
2022-08-05T17:47:36.814Z,102265.00
2022-08-05T17:50:10.925Z,102266.28
2022-08-05T17:52:52.607Z,102228.09
2022-08-05T17:55:19.607Z,102280.50
2022-08-05T17:57:50.213Z,102262.75
2022-08-05T18:00:18.563Z,102277.53
2022-08-05T18:02:46.785Z,102287.09
2022-08-05T18:05:13.753Z,102292.19
2022-08-05T18:07:44.521Z,102288.81
2022-08-05T18:10:11.819Z,102305.97
2022-08-05T18:12:49.004Z,102312.94
2022-08-05T18:15:15.775Z,102279.44
2022-08-05T18:18:00.903Z,102309.84
2022-08-05T18:20:31.740Z,102293.31
2022-08-05T18:23:09.217Z,102315.47
2022-08-05T18:25:39.050Z,102311.84
2022-08-05T18:28:09.505Z,102310.00
2022-08-05T18:30:39.118Z,102295.34
2022-08-05T18:33:07.430Z,102327.66
2022-08-05T18:36:01.270Z,102332.53
2022-08-05T18:38:26.174Z,102322.19
2022-08-05T18:41:57.002Z,102334.72
2022-08-05T18:43:43.214Z,102341.03
2022-08-05T18:46:15.713Z,102343.63
2022-08-05T18:48:47.941Z,102296.75
2022-08-05T18:52:04.358Z,102340.50
2022-08-05T18:54:28.456Z,102341.22
2022-08-05T18:57:01.361Z,102336.69
2022-08-05T18:59:43.895Z,102356.41
2022-08-05T19:02:26.834Z,102356.56
2022-08-05T19:06:05.969Z,102347.22
2022-08-05T19:07:55.197Z,102360.19
2022-08-05T19:10:26.554Z,102358.44
2022-08-05T19:12:55.929Z,102370.84
2022-08-05T19:15:58.677Z,102375.97
2022-08-05T19:18:21.775Z,102378.03
2022-08-05T19:20:52.188Z,102389.06
2022-08-05T19:24:03.878Z,102393.31
2022-08-05T19:26:08.446Z,102389.66
2022-08-05T19:28:38.110Z,102391.19
2022-08-05T19:31:08.514Z,102397.38
2022-08-05T19:33:36.815Z,102390.78
2022-08-05T19:36:07.011Z,102398.69
2022-08-05T19:38:36.594Z,102409.19
2022-08-05T19:41:07.068Z,102403.47
2022-08-05T19:44:05.375Z,102407.56
2022-08-05T19:46:30.882Z,102407.50
2022-08-05T19:49:03.219Z,102406.09
2022-08-05T19:52:05.890Z,102407.06
2022-08-05T19:54:31.233Z,102407.50
2022-08-05T19:57:06.553Z,102415.56
2022-08-05T19:59:56.073Z,102420.34
2022-08-05T20:02:27.034Z,102421.03
2022-08-05T20:04:58.892Z,102427.88
2022-08-05T20:07:48.237Z,102384.69
2022-08-05T20:10:14.774Z,102432.47
2022-08-05T20:12:46.298Z,102430.16
2022-08-05T20:15:22.950Z,102433.56
2022-08-05T20:18:10.193Z,102425.97
2022-08-05T20:20:57.467Z,102446.56
2022-08-05T20:23:40.148Z,102441.34
2022-08-05T20:26:16.184Z,102456.78
2022-08-05T20:28:51.444Z,102452.59
2022-08-05T20:31:28.268Z,102454.97
2022-08-05T20:34:03.821Z,102467.47
2022-08-05T20:36:33.261Z,102464.00
2022-08-05T20:38:59.872Z,102466.03
2022-08-05T20:41:44.266Z,102456.63
2022-08-05T20:44:30.677Z,102454.34
2022-08-05T20:47:03.436Z,102470.88
2022-08-05T20:49:37.811Z,102468.56
2022-08-05T20:52:07.011Z,102477.28
2022-08-05T20:54:55.297Z,102467.16
2022-08-05T20:57:41.974Z,102457.91
2022-08-05T21:00:40.235Z,102483.84
2022-08-05T21:03:01.308Z,102477.03
2022-08-05T21:05:47.937Z,102481.84
2022-08-05T21:08:18.291Z,102479.53
2022-08-05T21:10:48.872Z,102483.47
2022-08-05T21:13:20.267Z,102479.00
2022-08-05T21:15:55.174Z,102493.63
2022-08-05T21:18:23.350Z,102495.69
2022-08-05T21:20:50.130Z,102492.38
2022-08-05T21:23:16.708Z,102498.31
2022-08-05T21:25:44.773Z,102496.72
2022-08-05T21:28:12.119Z,102500.78
2022-08-05T21:30:40.021Z,102488.63
2022-08-05T21:33:11.283Z,102495.72
2022-08-05T21:35:58.466Z,102502.72
2022-08-05T21:38:26.386Z,102492.13
2022-08-05T21:40:53.041Z,102503.28
2022-08-05T21:43:24.645Z,102504.44
2022-08-05T21:45:57.360Z,102503.28
2022-08-05T21:48:26.660Z,102514.31
2022-08-05T21:50:54.527Z,102505.91
2022-08-05T21:53:21.557Z,102509.81
2022-08-05T21:56:06.398Z,102526.31
2022-08-05T21:58:57.232Z,102524.13
2022-08-05T22:01:25.677Z,102529.94
2022-08-05T22:03:53.582Z,102510.78
2022-08-05T22:06:22.987Z,102526.59
2022-08-05T22:09:01.861Z,102520.53
2022-08-05T22:11:43.062Z,102534.69
2022-08-05T22:14:34.553Z,102451.66
2022-08-05T22:17:01.505Z,102531.63
2022-08-05T22:20:01.158Z,102539.03
2022-08-05T22:22:17.134Z,102527.13
2022-08-05T22:25:20.897Z,102540.59
2022-08-05T22:28:10.974Z,102539.44
2022-08-05T22:30:55.436Z,102533.31
2022-08-05T22:33:56.727Z,102546.22
2022-08-05T22:36:10.697Z,102537.06
2022-08-05T22:38:41.553Z,102545.75
2022-08-05T22:41:10.113Z,102546.91
2022-08-05T22:43:38.308Z,102550.69
2022-08-05T22:46:13.237Z,102543.72
2022-08-05T22:48:50.166Z,102557.88
2022-08-05T22:51:23.092Z,102558.78
2022-08-05T22:54:03.793Z,102546.53
2022-08-05T22:56:31.433Z,102570.75
2022-08-05T22:59:04.191Z,102533.19
2022-08-05T23:02:04.147Z,102582.03
2022-08-05T23:04:34.485Z,102570.31
2022-08-05T23:07:01.447Z,102574.34
2022-08-05T23:09:58.456Z,102578.25
2022-08-05T23:12:17.848Z,102571.00
2022-08-05T23:14:44.849Z,102585.59
2022-08-05T23:17:24.401Z,102590.97
2022-08-05T23:20:02.700Z,102542.13
2022-08-05T23:22:29.734Z,102561.53
2022-08-05T23:24:57.689Z,102571.22
2022-08-05T23:27:24.267Z,102587.59
2022-08-05T23:30:00.832Z,102581.78
2022-08-05T23:32:28.468Z,102588.13
2022-08-05T23:34:55.914Z,102587.41
2022-08-05T23:37:22.820Z,102589.56
2022-08-05T23:39:53.844Z,102580.25
2022-08-05T23:42:23.260Z,102593.84
2022-08-05T23:44:54.416Z,102591.66
2022-08-05T23:47:21.126Z,102600.78
2022-08-05T23:49:52.113Z,102600.44
2022-08-05T23:52:27.599Z,102593.19
2022-08-05T23:55:00.533Z,102588.63
2022-08-05T23:57:29.937Z,102600.50
